Time;durP1;ratioP1;P1;durP2;ratioP2;P2;SDS_P1;SDS_P2;PMS_P1;PMS_P2;Temp;Humidity;BMP_temperature;BMP_pressure;BME280_temperature;BME280_humidity;BME280_pressure;Samples;Min_cycle;Max_cycle;Signal;HPM_P1;HPM_P2
2022/10/06 00:02:17;;;;;;;;;;;21.00;63.40;;;;;;5049379;27;84801;-51
2022/10/06 00:04:42;;;;;;;;;;;20.90;63.40;;;;;;5049603;27;84598;-52
2022/10/06 00:07:08;;;;;;;;;;;21.00;63.50;;;;;;5050740;27;89193;-52
2022/10/06 00:09:33;;;;;;;;;;;20.90;63.40;;;;;;5051744;27;85491;-51
2022/10/06 00:11:59;;;;;;;;;;;20.90;63.60;;;;;;5048186;27;85278;-51
2022/10/06 00:14:25;;;;;;;;;;;20.90;63.70;;;;;;5046449;27;85349;-50
2022/10/06 00:16:51;;;;;;;;;;;20.90;63.60;;;;;;5046155;27;85280;-47
2022/10/06 00:19:16;;;;;;;;;;;20.90;63.60;;;;;;5041996;27;85009;-47
2022/10/06 00:21:42;;;;;;;;;;;20.90;63.50;;;;;;5045879;27;84812;-49
2022/10/06 00:24:07;;;;;;;;;;;20.90;63.60;;;;;;5043074;27;86055;-48
2022/10/06 00:26:33;;;;;;;;;;;20.90;63.70;;;;;;5057684;27;84435;-50
2022/10/06 00:28:59;;;;;;;;;;;20.90;63.70;;;;;;5046859;27;85902;-53
2022/10/06 00:31:24;;;;;;;;;;;20.90;63.60;;;;;;5042709;27;85423;-51
2022/10/06 00:33:50;;;;;;;;;;;20.80;63.60;;;;;;5046442;27;84393;-53
2022/10/06 00:36:15;;;;;;;;;;;20.80;63.70;;;;;;5040136;27;89267;-51
2022/10/06 00:38:41;;;;;;;;;;;20.80;63.60;;;;;;5048250;27;85920;-50
2022/10/06 00:41:09;;;;;;;;;;;20.80;63.60;;;;;;5040742;27;85278;-50
2022/10/06 00:43:45;;;;;;;;;;;20.80;63.60;;;;;;5046469;27;86084;-48
2022/10/06 00:46:32;;;;;;;;;;;20.80;63.70;;;;;;5051490;27;84577;-52
2022/10/06 00:49:01;;;;;;;;;;;20.80;63.80;;;;;;5057240;27;87969;-48
2022/10/06 00:51:27;;;;;;;;;;;20.70;63.70;;;;;;5045017;27;84690;-50
2022/10/06 00:53:53;;;;;;;;;;;20.80;63.70;;;;;;5051326;27;86885;-50
2022/10/06 00:56:19;;;;;;;;;;;20.70;63.80;;;;;;5050985;27;83964;-52
2022/10/06 00:58:44;;;;;;;;;;;20.70;63.80;;;;;;5045599;27;84579;-55
2022/10/06 01:01:11;;;;;;;;;;;20.70;63.80;;;;;;5051849;27;87617;-47
2022/10/06 01:03:39;;;;;;;;;;;20.70;64.00;;;;;;5050582;27;86032;-50
2022/10/06 01:06:04;;;;;;;;;;;20.70;63.90;;;;;;5031455;27;89291;-49
2022/10/06 01:08:31;;;;;;;;;;;20.70;63.80;;;;;;5042665;27;86773;-48
2022/10/06 01:10:56;;;;;;;;;;;20.70;63.90;;;;;;5046468;27;87661;-49
2022/10/06 01:13:22;;;;;;;;;;;20.70;64.30;;;;;;5051011;27;85691;-47
2022/10/06 01:16:00;;;;;;;;;;;20.70;64.10;;;;;;5054931;27;87129;-49
2022/10/06 01:18:28;;;;;;;;;;;20.60;63.70;;;;;;5048386;27;85239;-48
2022/10/06 01:20:57;;;;;;;;;;;20.70;63.90;;;;;;5054244;27;85474;-46
2022/10/06 01:23:23;;;;;;;;;;;20.60;63.90;;;;;;5055033;27;85295;-52
2022/10/06 01:25:49;;;;;;;;;;;20.60;64.10;;;;;;5035038;27;84638;-52
2022/10/06 01:28:14;;;;;;;;;;;20.60;64.10;;;;;;5047436;27;86546;-47
2022/10/06 01:30:40;;;;;;;;;;;20.50;64.10;;;;;;5043466;27;85468;-51
2022/10/06 01:33:05;;;;;;;;;;;20.60;64.20;;;;;;5046761;27;85377;-50
2022/10/06 01:35:31;;;;;;;;;;;20.60;64.10;;;;;;5022603;27;85146;-47
2022/10/06 01:37:59;;;;;;;;;;;20.60;64.20;;;;;;5041001;27;85455;-54
2022/10/06 01:40:27;;;;;;;;;;;20.50;64.10;;;;;;5054130;27;84355;-51
2022/10/06 01:42:54;;;;;;;;;;;20.50;64.10;;;;;;5046822;27;84627;-52
2022/10/06 01:45:19;;;;;;;;;;;20.50;64.20;;;;;;5039198;27;83816;-48
2022/10/06 01:47:46;;;;;;;;;;;20.50;64.00;;;;;;5047117;27;84694;-49
2022/10/06 01:50:12;;;;;;;;;;;20.50;64.00;;;;;;5052098;27;84706;-52
2022/10/06 01:52:37;;;;;;;;;;;20.50;64.10;;;;;;5047917;27;85192;-47
2022/10/06 01:55:03;;;;;;;;;;;20.50;64.10;;;;;;5029038;27;88585;-49
2022/10/06 01:57:28;;;;;;;;;;;20.50;64.30;;;;;;5047787;27;86529;-48
2022/10/06 01:59:54;;;;;;;;;;;20.40;64.20;;;;;;5040928;27;84445;-49
2022/10/06 02:02:19;;;;;;;;;;;20.40;64.20;;;;;;5042094;27;84799;-49
2022/10/06 02:04:46;;;;;;;;;;;20.50;64.20;;;;;;5053199;27;84440;-49
2022/10/06 02:07:12;;;;;;;;;;;20.40;64.10;;;;;;5045359;27;85061;-48
2022/10/06 02:09:37;;;;;;;;;;;20.40;64.30;;;;;;5056104;27;84498;-47
2022/10/06 02:12:03;;;;;;;;;;;20.40;64.30;;;;;;5034922;27;85658;-48
2022/10/06 02:14:30;;;;;;;;;;;20.40;64.40;;;;;;5042584;27;84358;-49
2022/10/06 02:16:56;;;;;;;;;;;20.30;64.40;;;;;;5046117;27;85890;-50
2022/10/06 02:19:22;;;;;;;;;;;20.40;64.50;;;;;;5054034;27;85564;-49
2022/10/06 02:21:47;;;;;;;;;;;20.30;64.40;;;;;;5045838;27;88091;-47
2022/10/06 02:24:13;;;;;;;;;;;20.20;64.50;;;;;;5046748;27;84703;-49
2022/10/06 02:26:39;;;;;;;;;;;20.20;64.70;;;;;;5049071;27;85919;-54
2022/10/06 02:29:04;;;;;;;;;;;20.20;64.60;;;;;;5016153;27;86197;-50
2022/10/06 02:31:30;;;;;;;;;;;20.20;64.60;;;;;;5043156;27;85086;-52
2022/10/06 02:33:56;;;;;;;;;;;20.20;64.70;;;;;;5046193;27;83864;-47
2022/10/06 02:36:22;;;;;;;;;;;20.20;64.70;;;;;;5050832;27;84748;-51
2022/10/06 02:38:48;;;;;;;;;;;20.20;64.60;;;;;;5051696;27;85223;-48
2022/10/06 02:41:13;;;;;;;;;;;20.20;64.60;;;;;;5045559;27;88230;-51
2022/10/06 02:43:39;;;;;;;;;;;20.10;64.70;;;;;;5042804;27;84693;-48
2022/10/06 02:46:06;;;;;;;;;;;20.20;64.80;;;;;;5049521;27;86345;-47
2022/10/06 02:48:33;;;;;;;;;;;20.10;64.90;;;;;;5033105;27;86605;-50
2022/10/06 02:51:00;;;;;;;;;;;20.10;64.70;;;;;;5037871;27;84946;-55
2022/10/06 02:53:26;;;;;;;;;;;20.10;65.00;;;;;;5049906;27;84312;-49
2022/10/06 02:55:59;;;;;;;;;;;20.10;64.90;;;;;;5043512;27;89351;-50
2022/10/06 02:58:25;;;;;;;;;;;20.10;65.00;;;;;;5042045;27;85442;-51
2022/10/06 03:00:51;;;;;;;;;;;20.00;65.10;;;;;;5048087;27;85868;-54
2022/10/06 03:03:16;;;;;;;;;;;20.00;65.30;;;;;;5052938;27;86013;-47
2022/10/06 03:05:42;;;;;;;;;;;20.00;65.10;;;;;;5043448;27;87830;-49
2022/10/06 03:08:09;;;;;;;;;;;20.00;65.30;;;;;;5048054;27;85773;-48
2022/10/06 03:10:35;;;;;;;;;;;20.00;65.10;;;;;;5040155;27;84596;-51
2022/10/06 03:13:00;;;;;;;;;;;19.90;65.30;;;;;;5037633;27;89925;-48
2022/10/06 03:15:26;;;;;;;;;;;20.00;65.40;;;;;;5042949;27;85151;-49
2022/10/06 03:17:51;;;;;;;;;;;19.90;65.50;;;;;;5038296;27;84749;-48
2022/10/06 03:20:17;;;;;;;;;;;19.90;65.60;;;;;;5046888;27;85205;-49
2022/10/06 03:22:42;;;;;;;;;;;19.80;65.60;;;;;;5058653;27;88679;-49
2022/10/06 03:25:08;;;;;;;;;;;19.80;65.60;;;;;;5045603;27;84841;-48
2022/10/06 03:27:34;;;;;;;;;;;19.80;65.70;;;;;;5045602;27;84848;-49
2022/10/06 03:29:59;;;;;;;;;;;19.90;65.60;;;;;;5048749;27;85893;-52
2022/10/06 03:32:25;;;;;;;;;;;19.90;65.70;;;;;;5054516;27;85235;-50
2022/10/06 03:34:52;;;;;;;;;;;19.80;65.60;;;;;;5051919;27;85029;-46
2022/10/06 03:37:18;;;;;;;;;;;19.80;65.80;;;;;;5038204;27;85835;-51
2022/10/06 03:39:43;;;;;;;;;;;19.80;65.90;;;;;;5022911;27;88417;-48
2022/10/06 03:42:09;;;;;;;;;;;19.80;65.80;;;;;;5052333;27;84796;-48
2022/10/06 03:44:35;;;;;;;;;;;19.70;65.60;;;;;;5048548;27;85759;-49
2022/10/06 03:47:01;;;;;;;;;;;19.70;65.70;;;;;;5052287;27;84743;-48
2022/10/06 03:49:26;;;;;;;;;;;19.70;65.90;;;;;;5050496;27;85869;-46
2022/10/06 03:51:52;;;;;;;;;;;19.70;65.70;;;;;;5051187;27;84680;-52
2022/10/06 03:54:17;;;;;;;;;;;19.70;66.50;;;;;;5053956;27;87020;-52
2022/10/06 03:56:43;;;;;;;;;;;19.60;65.90;;;;;;5048997;27;86012;-52
2022/10/06 03:59:10;;;;;;;;;;;19.60;66.00;;;;;;5046505;27;84377;-50
2022/10/06 04:01:40;;;;;;;;;;;19.60;66.30;;;;;;5030737;27;84590;-49
2022/10/06 04:04:06;;;;;;;;;;;19.60;66.30;;;;;;5052958;27;85862;-47
2022/10/06 04:06:33;;;;;;;;;;;19.60;66.10;;;;;;5049717;27;84419;-47
2022/10/06 04:08:59;;;;;;;;;;;19.60;66.30;;;;;;5046074;27;85176;-49
2022/10/06 04:11:27;;;;;;;;;;;19.60;66.40;;;;;;5038009;27;84806;-48
2022/10/06 04:13:53;;;;;;;;;;;19.60;66.30;;;;;;5056791;27;87238;-50
2022/10/06 04:16:20;;;;;;;;;;;19.50;66.50;;;;;;5045293;27;84410;-50
2022/10/06 04:18:48;;;;;;;;;;;19.50;66.40;;;;;;5045256;27;85694;-53
2022/10/06 04:21:14;;;;;;;;;;;19.50;66.50;;;;;;5036899;27;87683;-57
2022/10/06 04:23:40;;;;;;;;;;;19.50;66.40;;;;;;5008862;27;84999;-53
2022/10/06 04:26:10;;;;;;;;;;;19.50;66.40;;;;;;5051095;27;86504;-48
2022/10/06 04:28:36;;;;;;;;;;;19.50;66.30;;;;;;5053049;27;85320;-46
2022/10/06 04:31:03;;;;;;;;;;;19.40;66.60;;;;;;5044620;27;87491;-48
2022/10/06 04:33:33;;;;;;;;;;;19.30;66.70;;;;;;5053129;27;84938;-46
2022/10/06 04:36:05;;;;;;;;;;;19.30;66.70;;;;;;5050137;27;84102;-50
2022/10/06 04:38:31;;;;;;;;;;;19.40;66.80;;;;;;5048023;27;86940;-49
2022/10/06 04:41:03;;;;;;;;;;;19.30;67.00;;;;;;5045652;27;89770;-50
2022/10/06 04:43:28;;;;;;;;;;;19.30;66.90;;;;;;5040458;27;90565;-49
2022/10/06 04:45:57;;;;;;;;;;;19.30;66.60;;;;;;5056402;27;84947;-49
2022/10/06 04:48:23;;;;;;;;;;;19.30;66.80;;;;;;5053423;27;84645;-49
2022/10/06 04:50:53;;;;;;;;;;;19.30;66.70;;;;;;5049146;27;84277;-47
2022/10/06 04:53:18;;;;;;;;;;;19.30;66.70;;;;;;5050522;27;84312;-54
2022/10/06 04:55:44;;;;;;;;;;;19.30;66.90;;;;;;5051953;27;84580;-47
2022/10/06 04:58:09;;;;;;;;;;;19.30;67.00;;;;;;5050014;27;86198;-48
2022/10/06 05:00:35;;;;;;;;;;;19.30;66.90;;;;;;5035579;27;84482;-50
2022/10/06 05:03:00;;;;;;;;;;;19.30;66.90;;;;;;5040752;27;86631;-52
2022/10/06 05:05:26;;;;;;;;;;;19.20;66.90;;;;;;5047179;27;84687;-47
2022/10/06 05:07:51;;;;;;;;;;;19.20;67.10;;;;;;5060673;27;85404;-46
2022/10/06 05:10:17;;;;;;;;;;;19.20;67.30;;;;;;5049130;27;84953;-47
2022/10/06 05:12:43;;;;;;;;;;;19.20;66.90;;;;;;5052179;27;84727;-50
2022/10/06 05:15:09;;;;;;;;;;;19.20;66.90;;;;;;5040397;27;86592;-52
2022/10/06 05:17:35;;;;;;;;;;;19.20;66.90;;;;;;5051045;27;88457;-52
2022/10/06 05:20:00;;;;;;;;;;;19.20;67.10;;;;;;5052338;27;84452;-51
2022/10/06 05:22:26;;;;;;;;;;;19.20;67.00;;;;;;5031619;27;86372;-49
2022/10/06 05:24:52;;;;;;;;;;;19.20;67.10;;;;;;5045229;27;84806;-50
2022/10/06 05:27:19;;;;;;;;;;;19.20;66.90;;;;;;5048240;27;84798;-48
2022/10/06 05:29:45;;;;;;;;;;;19.20;66.80;;;;;;5040278;27;85049;-54
2022/10/06 05:32:10;;;;;;;;;;;19.20;66.80;;;;;;5047192;27;85941;-50
2022/10/06 05:34:36;;;;;;;;;;;19.10;67.00;;;;;;5039540;27;85319;-50
2022/10/06 05:37:01;;;;;;;;;;;19.10;67.30;;;;;;5010851;27;85642;-52
2022/10/06 05:39:27;;;;;;;;;;;19.20;67.20;;;;;;5044879;27;85292;-49
2022/10/06 05:41:52;;;;;;;;;;;19.20;67.20;;;;;;5050666;27;85127;-51
2022/10/06 05:44:18;;;;;;;;;;;19.20;67.10;;;;;;5034217;27;85700;-53
2022/10/06 05:46:43;;;;;;;;;;;19.20;67.10;;;;;;5047339;27;84867;-51
2022/10/06 05:49:11;;;;;;;;;;;19.30;66.40;;;;;;5042068;27;84147;-48
2022/10/06 05:51:39;;;;;;;;;;;19.30;65.90;;;;;;5023411;27;86260;-52
2022/10/06 05:54:05;;;;;;;;;;;19.40;65.60;;;;;;5046426;27;85438;-51
2022/10/06 05:56:32;;;;;;;;;;;19.40;65.70;;;;;;5055609;27;86801;-55
2022/10/06 05:58:58;;;;;;;;;;;19.50;65.30;;;;;;5046243;27;85612;-52
2022/10/06 06:01:25;;;;;;;;;;;19.50;65.40;;;;;;5037588;27;87542;-51
2022/10/06 06:03:59;;;;;;;;;;;19.50;65.30;;;;;;5034245;27;84920;-47
2022/10/06 06:06:27;;;;;;;;;;;19.50;65.50;;;;;;5042734;27;85110;-51
2022/10/06 06:09:00;;;;;;;;;;;19.50;65.20;;;;;;5017231;27;85403;-53
2022/10/06 06:11:26;;;;;;;;;;;19.40;66.60;;;;;;5052865;27;84971;-49
2022/10/06 06:13:59;;;;;;;;;;;19.30;67.50;;;;;;5041133;27;84292;-46
2022/10/06 06:16:27;;;;;;;;;;;19.40;67.50;;;;;;5031089;27;84656;-49
2022/10/06 06:18:53;;;;;;;;;;;19.50;67.30;;;;;;5023845;27;88513;-50
2022/10/06 06:21:20;;;;;;;;;;;19.30;67.40;;;;;;5033178;27;88202;-52
2022/10/06 06:23:46;;;;;;;;;;;19.30;68.00;;;;;;5031958;27;85820;-47
2022/10/06 06:26:12;;;;;;;;;;;19.20;68.50;;;;;;5033693;27;84746;-48
2022/10/06 06:28:39;;;;;;;;;;;19.30;68.40;;;;;;5043138;27;85471;-52
2022/10/06 06:31:09;;;;;;;;;;;19.30;68.30;;;;;;5043151;27;86326;-49
2022/10/06 06:33:38;;;;;;;;;;;19.50;68.00;;;;;;5047293;27;84668;-50
2022/10/06 06:36:11;;;;;;;;;;;19.60;67.70;;;;;;5035478;27;85809;-50
2022/10/06 06:38:37;;;;;;;;;;;19.60;67.70;;;;;;5041613;27;84734;-49
2022/10/06 06:41:03;;;;;;;;;;;19.70;67.60;;;;;;5044308;27;84457;-46
2022/10/06 06:43:28;;;;;;;;;;;19.70;67.60;;;;;;5041722;27;87799;-46
2022/10/06 06:46:00;;;;;;;;;;;19.70;67.50;;;;;;5032906;27;86856;-50
2022/10/06 06:48:27;;;;;;;;;;;19.50;68.20;;;;;;5040296;27;85318;-50
2022/10/06 06:50:56;;;;;;;;;;;19.40;68.60;;;;;;5027532;27;84967;-50
2022/10/06 06:53:22;;;;;;;;;;;19.40;68.40;;;;;;5049844;27;84847;-52
2022/10/06 06:55:51;;;;;;;;;;;19.30;68.50;;;;;;5045089;27;85078;-49
2022/10/06 06:58:17;;;;;;;;;;;19.50;68.50;;;;;;5047444;27;84975;-50
2022/10/06 07:00:43;;;;;;;;;;;19.60;68.40;;;;;;5056281;27;85030;-46
2022/10/06 07:03:12;;;;;;;;;;;19.70;68.00;;;;;;5047468;27;84348;-47
2022/10/06 07:05:38;;;;;;;;;;;19.80;67.80;;;;;;5043957;27;87183;-47
2022/10/06 07:08:06;;;;;;;;;;;19.90;67.80;;;;;;5052030;27;85317;-46
2022/10/06 07:10:34;;;;;;;;;;;19.80;68.10;;;;;;5042226;27;86258;-49
2022/10/06 07:13:00;;;;;;;;;;;19.60;68.50;;;;;;5033399;27;87839;-48
2022/10/06 07:26:23;;;;;;;;;;;19.50;68.70;;;;;;5052708;27;85944;-53
2022/10/06 07:28:48;;;;;;;;;;;19.80;68.50;;;;;;5048205;27;84568;-55
2022/10/06 07:31:16;;;;;;;;;;;20.00;68.90;;;;;;5036634;27;88880;-51
2022/10/06 07:33:42;;;;;;;;;;;20.20;67.80;;;;;;5052061;27;86046;-53
2022/10/06 07:36:08;;;;;;;;;;;20.20;67.80;;;;;;5030152;27;86153;-51
2022/10/06 07:38:35;;;;;;;;;;;20.30;67.40;;;;;;5024671;27;85033;-50
2022/10/06 07:41:00;;;;;;;;;;;20.20;67.10;;;;;;5042649;27;85441;-48
2022/10/06 07:43:26;;;;;;;;;;;20.20;66.50;;;;;;5041655;27;85202;-49
2022/10/06 07:45:51;;;;;;;;;;;20.00;67.00;;;;;;5045459;27;85934;-48
2022/10/06 07:48:21;;;;;;;;;;;19.90;67.20;;;;;;5055613;27;85015;-51
2022/10/06 07:50:50;;;;;;;;;;;19.80;67.50;;;;;;5049029;27;85921;-47
2022/10/06 07:53:17;;;;;;;;;;;19.90;67.20;;;;;;5038437;27;86222;-50
2022/10/06 07:55:45;;;;;;;;;;;20.00;66.80;;;;;;5038013;27;84753;-47
2022/10/06 07:58:10;;;;;;;;;;;20.10;66.10;;;;;;5060075;27;86704;-48
2022/10/06 08:00:36;;;;;;;;;;;20.20;66.30;;;;;;5041868;27;86774;-51
2022/10/06 08:03:01;;;;;;;;;;;20.20;66.50;;;;;;5036161;27;88608;-50
2022/10/06 08:05:27;;;;;;;;;;;20.30;66.20;;;;;;5043729;27;84240;-50
2022/10/06 08:07:53;;;;;;;;;;;20.40;66.00;;;;;;5043861;27;84806;-48
2022/10/06 08:10:19;;;;;;;;;;;20.40;65.90;;;;;;5028499;27;84408;-46
2022/10/06 08:12:45;;;;;;;;;;;20.30;66.20;;;;;;5044066;27;86876;-49
2022/10/06 08:15:12;;;;;;;;;;;20.20;66.70;;;;;;5046455;27;84814;-52
2022/10/06 08:17:38;;;;;;;;;;;20.20;66.80;;;;;;5048620;27;83970;-49
2022/10/06 08:20:05;;;;;;;;;;;20.30;66.20;;;;;;5035666;27;85618;-52
2022/10/06 08:22:30;;;;;;;;;;;20.40;66.30;;;;;;5044093;27;88504;-50
2022/10/06 08:24:59;;;;;;;;;;;20.40;65.50;;;;;;5043027;27;85699;-54
2022/10/06 08:27:26;;;;;;;;;;;20.20;65.90;;;;;;5044394;27;85266;-48
2022/10/06 08:29:53;;;;;;;;;;;20.00;66.20;;;;;;5039892;27;84817;-51
2022/10/06 08:32:19;;;;;;;;;;;19.90;66.60;;;;;;5046122;27;85528;-52
2022/10/06 08:34:46;;;;;;;;;;;19.90;66.50;;;;;;5039236;27;84724;-50
2022/10/06 08:37:11;;;;;;;;;;;19.90;66.40;;;;;;5040293;27;85677;-51
2022/10/06 08:39:37;;;;;;;;;;;19.90;66.50;;;;;;5032220;27;90739;-50
2022/10/06 08:42:02;;;;;;;;;;;19.90;66.60;;;;;;5044255;27;89955;-55
2022/10/06 08:44:29;;;;;;;;;;;19.80;66.40;;;;;;5045486;27;90117;-51
2022/10/06 08:46:54;;;;;;;;;;;19.90;66.60;;;;;;5035344;27;90774;-52
2022/10/06 08:49:21;;;;;;;;;;;20.00;66.50;;;;;;5032533;27;91854;-51
2022/10/06 08:51:55;;;;;;;;;;;20.20;66.20;;;;;;5036880;27;90402;-50
2022/10/06 08:54:39;;;;;;;;;;;20.40;65.60;;;;;;5037606;27;89984;-47
2022/10/06 08:57:18;;;;;;;;;;;20.50;65.60;;;;;;5040639;27;90379;-49
2022/10/06 08:59:45;;;;;;;;;;;20.50;65.60;;;;;;5047478;27;89933;-53
2022/10/06 09:02:18;;;;;;;;;;;20.60;65.60;;;;;;5036728;27;94891;-49
2022/10/06 09:04:44;;;;;;;;;;;20.50;65.30;;;;;;5033711;27;90096;-52
2022/10/06 09:07:09;;;;;;;;;;;20.40;65.60;;;;;;5027240;27;89654;-51
2022/10/06 09:09:53;;;;;;;;;;;20.30;65.20;;;;;;5041545;27;91530;-52
2022/10/06 09:12:28;;;;;;;;;;;20.30;65.70;;;;;;5040835;27;89596;-48
2022/10/06 09:15:05;;;;;;;;;;;20.30;65.90;;;;;;5044481;27;90459;-52
2022/10/06 09:17:38;;;;;;;;;;;20.30;66.30;;;;;;5041137;27;91670;-50
2022/10/06 09:20:11;;;;;;;;;;;20.40;65.90;;;;;;5042858;27;90399;-51
2022/10/06 09:22:36;;;;;;;;;;;20.50;65.40;;;;;;5046122;27;90843;-47
2022/10/06 09:25:16;;;;;;;;;;;20.50;65.90;;;;;;5032872;27;93353;-52
2022/10/06 09:27:42;;;;;;;;;;;20.50;65.90;;;;;;5037551;27;91031;-52
2022/10/06 09:30:11;;;;;;;;;;;20.60;66.20;;;;;;5042376;27;90952;-50
2022/10/06 09:32:38;;;;;;;;;;;20.70;66.10;;;;;;5037792;27;89348;-49
2022/10/06 09:35:15;;;;;;;;;;;20.70;65.90;;;;;;5034415;27;91769;-47
2022/10/06 09:37:53;;;;;;;;;;;20.70;65.70;;;;;;5040735;27;91289;-53
2022/10/06 09:40:34;;;;;;;;;;;20.80;65.70;;;;;;5044788;27;91048;-47
2022/10/06 09:43:01;;;;;;;;;;;20.80;65.40;;;;;;5039813;27;92346;-48
2022/10/06 09:45:27;;;;;;;;;;;20.90;65.70;;;;;;5045158;27;98132;-46
2022/10/06 09:47:53;;;;;;;;;;;20.90;65.30;;;;;;5035657;27;90340;-50
2022/10/06 09:50:26;;;;;;;;;;;20.90;65.20;;;;;;5044257;27;91050;-50
2022/10/06 09:53:02;;;;;;;;;;;20.90;65.40;;;;;;5036333;27;90307;-49
2022/10/06 09:55:27;;;;;;;;;;;20.90;65.20;;;;;;5054732;27;89800;-49
2022/10/06 09:57:57;;;;;;;;;;;20.90;65.00;;;;;;5053566;27;91995;-48
2022/10/06 10:00:25;;;;;;;;;;;20.90;64.80;;;;;;5042903;27;90851;-49
2022/10/06 10:03:05;;;;;;;;;;;20.90;64.80;;;;;;5040152;27;90676;-50
2022/10/06 10:05:32;;;;;;;;;;;21.00;64.40;;;;;;5043423;27;90977;-52
2022/10/06 10:08:13;;;;;;;;;;;21.00;64.30;;;;;;5028549;27;90133;-52
2022/10/06 10:10:38;;;;;;;;;;;21.00;64.20;;;;;;5047123;27;90042;-54
2022/10/06 10:13:16;;;;;;;;;;;20.90;64.40;;;;;;5049840;27;90622;-53
2022/10/06 10:15:52;;;;;;;;;;;21.00;64.00;;;;;;5040552;27;89892;-52
2022/10/06 10:18:21;;;;;;;;;;;21.00;63.90;;;;;;5044128;27;89825;-48
2022/10/06 10:20:49;;;;;;;;;;;21.10;63.70;;;;;;5046976;27;90571;-52
2022/10/06 10:23:17;;;;;;;;;;;21.10;63.50;;;;;;5027478;27;90568;-53
2022/10/06 10:25:58;;;;;;;;;;;21.10;63.60;;;;;;5041898;27;91642;-51
2022/10/06 10:28:26;;;;;;;;;;;21.20;63.60;;;;;;5036844;27;90614;-48
2022/10/06 10:31:19;;;;;;;;;;;21.20;63.40;;;;;;5039220;27;90606;-48
2022/10/06 10:34:03;;;;;;;;;;;21.20;63.30;;;;;;5005314;27;90217;-50
2022/10/06 10:36:43;;;;;;;;;;;21.20;63.40;;;;;;5044429;27;89861;-49
2022/10/06 10:39:13;;;;;;;;;;;21.30;63.70;;;;;;5039749;27;93279;-54
2022/10/06 10:41:44;;;;;;;;;;;21.40;63.70;;;;;;5045828;27;89562;-51
2022/10/06 10:44:19;;;;;;;;;;;21.40;63.80;;;;;;5051966;27;91068;-54
2022/10/06 10:46:50;;;;;;;;;;;21.50;63.70;;;;;;5040840;27;94709;-54
2022/10/06 10:49:16;;;;;;;;;;;21.50;64.00;;;;;;5041220;27;89144;-50
2022/10/06 10:51:48;;;;;;;;;;;21.60;64.00;;;;;;5035348;27;91043;-48
2022/10/06 10:54:27;;;;;;;;;;;21.60;64.10;;;;;;5042391;27;91076;-45
2022/10/06 10:56:53;;;;;;;;;;;21.60;64.00;;;;;;5031975;27;90778;-48
2022/10/06 10:59:22;;;;;;;;;;;21.70;64.20;;;;;;5035759;27;89771;-51
2022/10/06 11:01:58;;;;;;;;;;;21.70;64.30;;;;;;5037802;27;90756;-46
2022/10/06 11:04:23;;;;;;;;;;;21.70;64.30;;;;;;5040729;27;90421;-49
2022/10/06 11:07:01;;;;;;;;;;;21.70;64.30;;;;;;5048160;27;89943;-50
2022/10/06 11:09:33;;;;;;;;;;;21.70;64.20;;;;;;5043689;27;90084;-49
2022/10/06 11:12:17;;;;;;;;;;;21.70;64.30;;;;;;5039773;27;90212;-51
2022/10/06 11:14:47;;;;;;;;;;;21.80;64.40;;;;;;5046576;27;89455;-52
2022/10/06 11:17:19;;;;;;;;;;;21.80;64.30;;;;;;5034430;27;93709;-48
2022/10/06 11:19:57;;;;;;;;;;;21.80;64.20;;;;;;5042036;27;90291;-49
2022/10/06 11:22:41;;;;;;;;;;;21.80;64.10;;;;;;5035352;27;91647;-49
2022/10/06 11:25:12;;;;;;;;;;;21.90;64.10;;;;;;5044377;27;93216;-49
2022/10/06 11:27:56;;;;;;;;;;;21.90;64.10;;;;;;5035472;27;90871;-51
2022/10/06 11:30:25;;;;;;;;;;;21.90;64.20;;;;;;5031969;27;90852;-51
2022/10/06 11:32:51;;;;;;;;;;;22.00;64.10;;;;;;5049869;27;90247;-51
2022/10/06 11:35:21;;;;;;;;;;;22.00;64.80;;;;;;5045070;27;90918;-50
2022/10/06 11:37:47;;;;;;;;;;;22.00;64.00;;;;;;5037868;27;90173;-50
2022/10/06 11:40:13;;;;;;;;;;;22.00;64.10;;;;;;5045690;27;89409;-51
2022/10/06 11:42:39;;;;;;;;;;;22.10;64.20;;;;;;5040625;27;91105;-50
2022/10/06 11:45:15;;;;;;;;;;;22.10;64.10;;;;;;5050735;27;90618;-49
2022/10/06 11:47:59;;;;;;;;;;;22.10;64.00;;;;;;5047117;27;91163;-48
2022/10/06 11:50:32;;;;;;;;;;;22.20;64.00;;;;;;5048119;27;90036;-48
2022/10/06 11:52:58;;;;;;;;;;;22.20;64.00;;;;;;5041126;27;89988;-51
2022/10/06 11:55:25;;;;;;;;;;;22.20;64.10;;;;;;5041955;27;89778;-50
2022/10/06 11:58:03;;;;;;;;;;;22.20;64.10;;;;;;5052231;27;89840;-51
2022/10/06 12:00:31;;;;;;;;;;;22.20;64.00;;;;;;5047176;27;90519;-51
2022/10/06 12:03:17;;;;;;;;;;;22.30;64.20;;;;;;5040002;27;93366;-48
2022/10/06 12:05:42;;;;;;;;;;;22.30;64.20;;;;;;5041720;27;88897;-45
2022/10/06 12:08:08;;;;;;;;;;;22.30;64.00;;;;;;5040447;27;90597;-49
2022/10/06 12:10:34;;;;;;;;;;;22.30;64.00;;;;;;5054283;27;89521;-54
2022/10/06 12:13:06;;;;;;;;;;;22.30;63.80;;;;;;5045595;27;91525;-47
2022/10/06 12:15:50;;;;;;;;;;;22.30;63.50;;;;;;5039160;27;93383;-50
2022/10/06 12:18:24;;;;;;;;;;;22.30;63.30;;;;;;5042021;27;89455;-50
2022/10/06 12:21:00;;;;;;;;;;;22.30;63.00;;;;;;5041424;27;89943;-50
2022/10/06 12:23:35;;;;;;;;;;;22.30;62.80;;;;;;5034412;27;91086;-48
2022/10/06 12:26:06;;;;;;;;;;;22.20;60.00;;;;;;5048731;27;89951;-51
2022/10/06 12:28:46;;;;;;;;;;;22.10;59.20;;;;;;5033013;27;90055;-51
2022/10/06 12:31:11;;;;;;;;;;;22.10;54.40;;;;;;5048460;27;90998;-53
2022/10/06 12:33:41;;;;;;;;;;;21.80;52.50;;;;;;5033726;27;90278;-46
2022/10/06 12:36:19;;;;;;;;;;;21.60;50.80;;;;;;5038197;27;90138;-49
2022/10/06 12:39:06;;;;;;;;;;;21.60;51.90;;;;;;5044663;27;90963;-53
2022/10/06 12:41:50;;;;;;;;;;;21.50;50.10;;;;;;5048998;27;89875;-54
2022/10/06 12:44:23;;;;;;;;;;;21.20;51.80;;;;;;5041605;27;90782;-52
2022/10/06 12:46:50;;;;;;;;;;;21.10;53.10;;;;;;5033273;27;90813;-48
2022/10/06 12:49:20;;;;;;;;;;;20.90;53.70;;;;;;5046997;27;90760;-47
2022/10/06 12:51:47;;;;;;;;;;;20.90;53.70;;;;;;5045196;27;91514;-49
2022/10/06 12:54:18;;;;;;;;;;;21.10;53.50;;;;;;5036402;27;89981;-55
2022/10/06 12:56:56;;;;;;;;;;;21.20;51.80;;;;;;5039111;27;93051;-50
2022/10/06 12:59:23;;;;;;;;;;;21.20;52.60;;;;;;5028158;27;93575;-48
2022/10/06 13:01:50;;;;;;;;;;;21.10;51.10;;;;;;5034503;27;89558;-48
2022/10/06 13:04:29;;;;;;;;;;;21.10;50.10;;;;;;5045645;27;95869;-53
2022/10/06 13:06:55;;;;;;;;;;;20.80;52.20;;;;;;5050480;27;91530;-52
2022/10/06 13:09:20;;;;;;;;;;;20.50;51.60;;;;;;5016336;27;90325;-52
2022/10/06 13:11:48;;;;;;;;;;;20.60;54.10;;;;;;5035297;27;89594;-48
2022/10/06 13:14:14;;;;;;;;;;;20.60;51.90;;;;;;5045687;27;91076;-50
2022/10/06 13:16:40;;;;;;;;;;;20.40;52.70;;;;;;5051303;27;89630;-51
2022/10/06 13:19:14;;;;;;;;;;;20.20;53.00;;;;;;5028210;27;91079;-51
2022/10/06 13:21:40;;;;;;;;;;;20.40;53.20;;;;;;5048477;27;89249;-50
2022/10/06 13:24:10;;;;;;;;;;;20.50;51.60;;;;;;5035152;27;89434;-49
2022/10/06 13:26:35;;;;;;;;;;;20.40;52.40;;;;;;5037717;27;90124;-49
2022/10/06 13:29:01;;;;;;;;;;;20.40;51.90;;;;;;5037108;27;94441;-50
2022/10/06 13:31:31;;;;;;;;;;;20.30;52.00;;;;;;5039602;27;95405;-49
2022/10/06 13:34:01;;;;;;;;;;;20.20;54.00;;;;;;5045537;27;91360;-51
2022/10/06 13:36:28;;;;;;;;;;;20.20;53.80;;;;;;5051098;27;89809;-51
2022/10/06 13:38:53;;;;;;;;;;;20.30;52.60;;;;;;5043196;27;91598;-51
2022/10/06 13:41:19;;;;;;;;;;;20.40;52.40;;;;;;5040007;27;89995;-48
2022/10/06 13:43:50;;;;;;;;;;;20.50;52.70;;;;;;5042394;27;91152;-49
2022/10/06 13:46:17;;;;;;;;;;;20.70;51.60;;;;;;5038762;27;89371;-51
2022/10/06 13:48:53;;;;;;;;;;;20.60;50.90;;;;;;5042708;27;90040;-54
2022/10/06 13:51:21;;;;;;;;;;;20.60;52.10;;;;;;5042591;27;95403;-48
2022/10/06 13:53:47;;;;;;;;;;;20.40;52.40;;;;;;5033466;27;91874;-50
2022/10/06 13:56:31;;;;;;;;;;;20.50;51.60;;;;;;5038281;27;90367;-50
2022/10/06 13:58:56;;;;;;;;;;;20.60;50.50;;;;;;5029969;27;90381;-51
2022/10/06 14:01:29;;;;;;;;;;;20.60;50.70;;;;;;5044225;27;89732;-52
2022/10/06 14:04:13;;;;;;;;;;;20.50;51.40;;;;;;5040214;27;91143;-54
2022/10/06 14:06:47;;;;;;;;;;;20.40;52.30;;;;;;5041335;27;89867;-55
2022/10/06 14:09:18;;;;;;;;;;;20.40;52.50;;;;;;5040182;27;89815;-48
2022/10/06 14:11:44;;;;;;;;;;;20.70;51.90;;;;;;5035397;27;95308;-51
2022/10/06 14:14:14;;;;;;;;;;;20.70;51.20;;;;;;5042136;27;91286;-46
2022/10/06 14:16:45;;;;;;;;;;;20.90;50.70;;;;;;5033491;27;89909;-49
2022/10/06 14:19:49;;;;;;;;;;;20.90;50.50;;;;;;5044854;27;92339;-49
2022/10/06 14:22:29;;;;;;;;;;;21.00;50.00;;;;;;4955977;28;90066;-49
2022/10/06 14:24:55;;;;;;;;;;;20.90;49.80;;;;;;4951317;28;92167;-53
2022/10/06 14:27:22;;;;;;;;;;;20.90;49.60;;;;;;5002108;27;97442;-51
2022/10/06 14:29:47;;;;;;;;;;;21.00;48.90;;;;;;5041509;27;92424;-50
2022/10/06 14:32:14;;;;;;;;;;;21.00;48.90;;;;;;5040613;27;90147;-52
2022/10/06 14:34:40;;;;;;;;;;;21.10;48.20;;;;;;5049446;27;90023;-47
2022/10/06 14:37:10;;;;;;;;;;;20.90;49.30;;;;;;5047206;27;90006;-48